Météo des aéroports (METAR) proches de Ticheville

 

LFRG - St Gatien, France
Distance from station: N 52km
Mise à jour: 22/05/2018 20:30
clair
clair
 Wind from N
Vent: N 9 km/h
Température: 16°C
Point de rosée: 12°C
Humidité: 77%
Baromètre: 1017 hPa
Résumé: clair
Visibility: greater than 10 km
2018/05/22 18:30 LFRG 221830Z AUTO 35005KT 310V020 CAVOK 16/12 Q1017
LFRK - Caen/Carpiquet(A, France
Distance from station: ONO 60km
Mise à jour: 22/05/2018 21:30
clair
clair
 Wind from NO
Vent: NO 7 km/h
Température: 14°C
Point de rosée: 10°C
Humidité: 77%
Baromètre: 1017 hPa
Résumé: clair
Visibility: greater than 10 km
2018/05/22 19:30 LFRK 221930Z AUTO 32004KT CAVOK 14/10 Q1017
 
LFOH - Le Havre/Octevil, France
Distance from station: NNO 69km
Mise à jour: 22/05/2018 21:30
clair
clair
 Wind from N
Vent: N 9 km/h
Température: 13°C
Point de rosée: 10°C
Humidité: 82%
Baromètre: 1017 hPa
Résumé: clair
Visibility: greater than 10 km
2018/05/22 19:30 LFOH 221930Z AUTO 36005KT 340V050 CAVOK 13/10 Q1017
LFOE - Evreux/Fauville, France
Distance from station: E 70km
Mise à jour: 22/05/2018 21:30
Thunderstorm
Thunderstorm
 Wind from NNO
Vent: NNO 7 km/h
Température: 17°C
Point de rosée: 12°C
Humidité: 73%
Baromètre: 1015 hPa
Clouds: Thunderstorm
Visibility: 10 km
2018/05/22 19:30 LFOE 221930Z AUTO 34004KT 300V010 9999 ///CB 17/12 Q1015 BECMG SCT045
 
LFOP - Rouen/Boos (aut), France
Distance from station: NE 83km
Mise à jour: 22/05/2018 21:30
clair
clair
 Wind from N
Vent: N 15 km/h
Température: 16°C
Point de rosée: 9°C
Humidité: 63%
Baromètre: 1016 hPa
Résumé: clair
Visibility: greater than 10 km
2018/05/22 19:30 LFOP 221930Z AUTO 35008KT CAVOK 16/09 Q1016 TEMPO 3000 SHRA BKN050CB
LFRM - Le Mans/Arnage(A, France
Distance from station: S 107km
Mise à jour: 22/05/2018 20:30
clair
clair
 Wind from N
Vent: N 22 km/h
Température: 21°C
Point de rosée: 11°C
Humidité: 53%
Baromètre: 1014 hPa
Résumé: clair
Visibility: greater than 10 km
2018/05/22 18:30 LFRM 221830Z AUTO 01012KT 330V040 CAVOK 21/11 Q1014 TEMPO 4500 -SHRA SCT050CB